Time;durP1;ratioP1;P1;durP2;ratioP2;P2;SDS_P1;SDS_P2;PMS_P1;PMS_P2;Temp;Humidity;BMP_temperature;BMP_pressure;BME280_temperature;BME280_humidity;BME280_pressure;Samples;Min_cycle;Max_cycle;Signal;HPM_P1;HPM_P2
2022/07/18 00:01:04;;;;;;;23.83;6.07;;;;;;;19.90;54.33;100827.63;5014879;28;20041;-50
2022/07/18 00:03:30;;;;;;;17.90;5.55;;;;;;;19.80;54.27;100837.63;5015710;28;20033;-44
2022/07/18 00:05:56;;;;;;;22.95;6.43;;;;;;;19.75;54.07;100831.09;5032988;28;20036;-49
2022/07/18 00:08:22;;;;;;;17.40;5.35;;;;;;;19.75;54.17;100830.28;5033527;28;20025;-46
2022/07/18 00:10:49;;;;;;;18.67;6.25;;;;;;;19.51;54.98;100832.63;5034131;28;20520;-44
2022/07/18 00:13:15;;;;;;;20.40;6.35;;;;;;;19.60;55.26;100831.06;5015458;28;27301;-46
2022/07/18 00:15:41;;;;;;;25.70;6.03;;;;;;;19.35;54.78;100830.94;5030800;28;20075;-49
2022/07/18 00:18:07;;;;;;;22.35;5.80;;;;;;;19.40;55.47;100820.91;5024402;28;20479;-49
2022/07/18 00:20:34;;;;;;;21.02;5.85;;;;;;;19.42;55.37;100832.31;5030727;28;20037;-49
2022/07/18 00:23:00;;;;;;;23.58;5.72;;;;;;;19.39;56.36;100829.31;5033498;28;20076;-49
2022/07/18 00:25:26;;;;;;;31.00;6.35;;;;;;;19.19;55.64;100821.88;5029173;28;20466;-45
2022/07/18 00:27:52;;;;;;;23.80;6.47;;;;;;;19.08;56.62;100818.31;5030759;28;20033;-49
2022/07/18 00:30:18;;;;;;;20.75;5.90;;;;;;;18.97;56.14;100816.59;5025739;28;20032;-50
2022/07/18 00:32:44;;;;;;;22.48;6.25;;;;;;;19.10;56.41;100818.03;5033620;28;20028;-48
2022/07/18 00:35:11;;;;;;;25.45;6.40;;;;;;;19.06;56.47;100817.75;5032314;28;20033;-48
2022/07/18 00:37:37;;;;;;;18.30;5.75;;;;;;;19.16;56.56;100812.38;5032098;28;20044;-48
2022/07/18 00:40:04;;;;;;;20.33;5.70;;;;;;;19.08;56.83;100814.78;5031586;28;20033;-48
2022/07/18 00:42:30;;;;;;;36.50;6.57;;;;;;;18.92;57.11;100811.16;5013730;28;20466;-44
2022/07/18 00:44:57;;;;;;;22.63;6.90;;;;;;;18.66;57.56;100819.09;5031787;28;20025;-49
2022/07/18 00:47:23;;;;;;;29.90;6.57;;;;;;;18.57;57.98;100817.13;5032354;28;20390;-44
2022/07/18 00:49:50;;;;;;;24.20;6.28;;;;;;;18.36;59.05;100814.25;5033278;28;20108;-47
2022/07/18 00:52:16;;;;;;;26.52;6.00;;;;;;;18.39;59.28;100810.22;5031521;28;20474;-48
2022/07/18 00:54:43;;;;;;;24.90;6.93;;;;;;;18.45;59.03;100814.59;5032696;28;20037;-48
2022/07/18 00:57:09;;;;;;;26.08;6.68;;;;;;;18.40;58.78;100811.84;5031858;28;20474;-48
2022/07/18 01:02:21;;;;;;;29.13;7.32;;;;;;;18.36;59.39;100806.13;5032314;28;20076;-46
2022/07/18 01:04:47;;;;;;;26.15;6.22;;;;;;;18.17;60.07;100802.97;5033130;28;20045;-47
2022/07/18 01:07:13;;;;;;;34.78;7.00;;;;;;;18.15;59.65;100797.00;5020462;28;20505;-48
2022/07/18 01:09:40;;;;;;;23.00;6.50;;;;;;;17.99;60.59;100799.81;5031701;28;20032;-46
2022/07/18 01:12:07;;;;;;;19.88;6.30;;;;;;;18.14;60.71;100794.53;5015035;28;20029;-49
2022/07/18 01:14:34;;;;;;;23.27;6.57;;;;;;;18.06;60.08;100789.59;5032534;28;20037;-47
2022/07/18 01:17:00;;;;;;;26.15;5.85;;;;;;;18.13;59.71;100784.78;5031024;28;20021;-48
2022/07/18 01:19:26;;;;;;;23.38;6.22;;;;;;;18.04;60.66;100784.44;5031277;28;20032;-48
2022/07/18 01:21:53;;;;;;;24.23;6.57;;;;;;;17.99;60.71;100788.97;5031674;28;20021;-49
2022/07/18 01:24:19;;;;;;;23.92;6.53;;;;;;;17.97;60.71;100791.13;5032144;28;20017;-48
2022/07/18 01:26:45;;;;;;;22.35;5.85;;;;;;;18.12;60.09;100789.38;5032560;28;20108;-48
2022/07/18 01:29:11;;;;;;;23.98;6.13;;;;;;;18.09;60.48;100789.88;5032366;28;20474;-49
2022/07/18 01:31:37;;;;;;;23.17;6.03;;;;;;;18.00;60.14;100788.75;5023061;28;20022;-48
2022/07/18 01:34:04;;;;;;;26.90;6.72;;;;;;;17.94;60.29;100795.19;5027870;28;20033;-49
2022/07/18 01:36:31;;;;;;;40.83;6.35;;;;;;;17.86;60.62;100790.22;5028042;28;20061;-46
2022/07/18 01:38:57;;;;;;;28.05;7.03;;;;;;;17.73;60.76;100798.75;5032801;28;20484;-45
2022/07/18 01:41:23;;;;;;;29.17;6.57;;;;;;;17.65;61.31;100792.66;5032515;28;20033;-48
2022/07/18 01:43:50;;;;;;;32.13;6.68;;;;;;;17.62;61.09;100792.38;5032279;28;20548;-48
2022/07/18 01:46:16;;;;;;;26.85;6.70;;;;;;;17.73;60.68;100799.56;5032463;28;20031;-44
2022/07/18 01:48:42;;;;;;;25.60;6.18;;;;;;;17.89;60.57;100804.06;5032528;28;20040;-48
2022/07/18 01:51:10;;;;;;;26.23;7.30;;;;;;;17.74;61.29;100806.59;5032413;28;20036;-49
2022/07/18 01:53:41;;;;;;;29.08;7.13;;;;;;;17.65;60.73;100811.63;5031946;28;20129;-48
2022/07/18 01:56:07;;;;;;;26.75;6.45;;;;;;;17.69;60.76;100810.03;5032334;28;20040;-48
2022/07/18 01:58:34;;;;;;;24.45;7.70;;;;;;;17.72;60.37;100807.91;5032467;28;20021;-49
2022/07/18 02:01:00;;;;;;;25.10;6.97;;;;;;;17.69;60.88;100801.91;5032219;28;20083;-45
2022/07/18 02:03:26;;;;;;;25.40;6.70;;;;;;;17.67;60.53;100805.97;5032373;28;20025;-47
2022/07/18 02:05:52;;;;;;;30.00;7.18;;;;;;;17.64;60.92;100798.34;5017184;28;20032;-45
2022/07/18 02:08:18;;;;;;;27.38;6.32;;;;;;;17.62;60.46;100801.31;5043616;28;20099;-48
2022/07/18 02:10:45;;;;;;;28.30;7.15;;;;;;;17.65;60.35;100792.66;5038521;28;20051;-47
2022/07/18 02:13:11;;;;;;;21.58;6.47;;;;;;;17.79;60.19;100797.72;5027876;28;20084;-49
2022/07/18 02:15:37;;;;;;;24.50;6.07;;;;;;;17.84;59.66;100795.06;5037127;28;20547;-47
2022/07/18 02:18:03;;;;;;;27.00;6.45;;;;;;;17.91;59.71;100798.38;5052037;28;20395;-49
2022/07/18 02:20:30;;;;;;;28.48;6.95;;;;;;;17.74;60.07;100798.50;5051572;28;20036;-49
2022/07/18 02:22:56;;;;;;;30.98;6.47;;;;;;;17.67;59.98;100793.25;5045070;28;20167;-47
2022/07/18 02:25:22;;;;;;;24.98;5.88;;;;;;;17.68;60.16;100797.59;5031810;28;20025;-48
2022/07/18 02:27:48;;;;;;;30.73;6.65;;;;;;;17.61;60.50;100805.09;5031086;28;20394;-49
2022/07/18 02:30:14;;;;;;;30.48;6.97;;;;;;;17.53;60.14;100810.94;5031897;28;20060;-47
2022/07/18 02:32:41;;;;;;;24.83;6.55;;;;;;;17.67;59.74;100806.78;5031324;28;20025;-46
2022/07/18 02:35:08;;;;;;;27.45;7.22;;;;;;;17.85;59.76;100812.94;5031885;28;20113;-46
2022/07/18 02:37:37;;;;;;;22.35;5.75;;;;;;;17.85;59.32;100807.53;5013919;28;20094;-48
2022/07/18 02:40:08;;;;;;;27.50;6.82;;;;;;;17.79;59.30;100812.09;5031816;28;20091;-48
2022/07/18 02:42:35;;;;;;;23.17;6.15;;;;;;;17.80;59.30;100810.19;5031155;28;20387;-45
2022/07/18 02:45:01;;;;;;;26.05;6.82;;;;;;;17.65;59.83;100808.09;5031830;28;20021;-47
2022/07/18 02:47:27;;;;;;;23.48;6.03;;;;;;;17.63;59.85;100802.94;5031754;28;20104;-46
2022/07/18 02:49:53;;;;;;;24.35;5.93;;;;;;;17.52;60.08;100809.31;5031526;28;20021;-49
2022/07/18 02:52:20;;;;;;;27.15;6.72;;;;;;;17.65;59.89;100808.91;5031350;28;20253;-46
2022/07/18 02:54:46;;;;;;;27.40;6.95;;;;;;;17.73;59.90;100812.28;5030856;28;20052;-44
2022/07/18 02:57:12;;;;;;;34.95;7.28;;;;;;;17.58;59.94;100796.66;5011433;28;20030;-48
2022/07/18 02:59:39;;;;;;;28.35;6.82;;;;;;;17.40;60.91;100806.72;5020073;28;20382;-48
2022/07/18 03:02:06;;;;;;;26.90;6.20;;;;;;;17.30;60.78;100813.91;5012358;28;20347;-47
2022/07/18 03:04:33;;;;;;;21.48;6.30;;;;;;;17.22;61.26;100808.94;5011722;28;20026;-48
2022/07/18 03:06:59;;;;;;;24.38;6.80;;;;;;;16.91;62.18;100813.91;5011493;28;20033;-45
2022/07/18 03:09:26;;;;;;;27.45;6.55;;;;;;;16.73;63.00;100806.09;5011778;28;20050;-48
2022/07/18 03:11:54;;;;;;;29.02;6.68;;;;;;;16.69;63.18;100804.91;5011555;28;20026;-45
2022/07/18 03:14:22;;;;;;;32.67;7.00;;;;;;;16.34;64.37;100814.09;5011087;28;20105;-48
2022/07/18 03:16:49;;;;;;;25.35;7.15;;;;;;;16.20;65.02;100810.06;5019936;28;20033;-46
2022/07/18 03:19:15;;;;;;;32.53;7.45;;;;;;;16.08;65.68;100813.63;5030818;28;20044;-48
2022/07/18 03:21:42;;;;;;;22.00;7.50;;;;;;;15.84;66.03;100806.72;5029405;28;20394;-46
2022/07/18 03:24:08;;;;;;;29.20;6.63;;;;;;;15.79;66.40;100803.94;5025610;28;20128;-46
2022/07/18 03:26:34;;;;;;;34.40;7.10;;;;;;;15.62;67.29;100803.03;5026033;28;20063;-48
2022/07/18 03:29:00;;;;;;;30.10;6.97;;;;;;;15.53;67.58;100808.78;5031210;28;20087;-46
2022/07/18 03:31:26;;;;;;;30.92;7.85;;;;;;;15.44;68.11;100804.84;5031670;28;20049;-44
2022/07/18 03:33:52;;;;;;;31.45;8.55;;;;;;;15.37;68.15;100806.84;5030732;28;20025;-45
2022/07/18 03:36:19;;;;;;;27.40;7.78;;;;;;;15.37;68.29;100793.34;5030905;28;20382;-48
2022/07/18 03:38:45;;;;;;;26.52;7.05;;;;;;;15.22;68.60;100801.97;5031306;28;20026;-48
2022/07/18 03:41:12;;;;;;;33.45;7.80;;;;;;;15.18;69.03;100802.69;5035057;28;20029;-45
2022/07/18 03:43:39;;;;;;;31.13;8.32;;;;;;;15.11;69.08;100810.91;5034632;28;20471;-49
2022/07/18 03:46:06;;;;;;;28.42;6.97;;;;;;;15.02;69.84;100815.00;5034728;28;20108;-47
2022/07/18 03:48:32;;;;;;;37.80;8.10;;;;;;;14.93;70.14;100817.22;5034868;28;20033;-48
2022/07/18 03:50:59;;;;;;;31.50;7.45;;;;;;;14.90;70.48;100814.19;5034109;28;20390;-48
2022/07/18 03:53:26;;;;;;;26.77;6.65;;;;;;;14.83;70.66;100811.63;5034319;28;20025;-45
2022/07/18 03:55:52;;;;;;;39.67;7.50;;;;;;;14.80;70.72;100814.78;5033685;28;20101;-47
2022/07/18 03:58:19;;;;;;;31.30;8.68;;;;;;;14.84;70.45;100824.03;5020051;28;20429;-46
2022/07/18 04:00:45;;;;;;;34.90;8.35;;;;;;;14.81;70.60;100827.19;5014666;28;20586;-46
2022/07/18 04:03:11;;;;;;;35.08;8.25;;;;;;;14.85;70.58;100824.84;5013765;28;20076;-48
2022/07/18 04:05:37;;;;;;;31.38;7.88;;;;;;;14.89;70.28;100818.75;5014258;28;20105;-48
2022/07/18 04:08:04;;;;;;;37.05;8.45;;;;;;;14.86;70.72;100821.91;5024515;28;20025;-48
2022/07/18 04:10:30;;;;;;;30.92;8.02;;;;;;;14.81;70.87;100813.72;5034232;28;20449;-48
2022/07/18 04:12:57;;;;;;;34.45;7.72;;;;;;;14.90;70.60;100809.63;5033682;28;20108;-46
2022/07/18 04:15:25;;;;;;;32.15;7.53;;;;;;;14.93;70.46;100808.31;5021415;28;20046;-49
2022/07/18 04:17:52;;;;;;;32.15;7.97;;;;;;;14.90;70.67;100820.41;5013988;28;20030;-48
2022/07/18 04:20:20;;;;;;;31.27;7.30;;;;;;;14.82;70.56;100811.84;5013762;28;20478;-44
2022/07/18 04:22:54;;;;;;;23.10;6.75;;;;;;;14.85;70.44;100814.88;5049808;28;20030;-48
2022/07/18 04:25:22;;;;;;;31.67;8.05;;;;;;;14.89;70.13;100818.75;5040608;28;20022;-47
2022/07/18 04:27:48;;;;;;;34.80;7.70;;;;;;;14.71;70.61;100818.84;5033405;28;20037;-48
2022/07/18 04:30:17;;;;;;;28.00;7.95;;;;;;;14.79;70.24;100819.34;5033736;28;20120;-47
2022/07/18 04:32:43;;;;;;;41.22;8.52;;;;;;;14.75;70.62;100830.81;5033220;28;20017;-48
2022/07/18 04:35:11;;;;;;;29.38;7.65;;;;;;;14.67;70.97;100820.41;5033370;28;20501;-45
2022/07/18 04:37:38;;;;;;;28.15;8.00;;;;;;;14.81;70.49;100816.41;5033678;28;20168;-48
2022/07/18 04:40:06;;;;;;;38.17;7.28;;;;;;;14.74;70.91;100834.56;5033795;28;20171;-46
2022/07/18 04:42:32;;;;;;;30.55;7.72;;;;;;;14.69;71.23;100831.75;5033020;28;20602;-48
2022/07/18 04:44:59;;;;;;;32.60;8.13;;;;;;;14.73;70.97;100844.53;5033490;28;20470;-47
2022/07/18 04:47:27;;;;;;;27.52;7.10;;;;;;;14.76;70.80;100852.13;5033369;28;20543;-47
2022/07/18 04:49:53;;;;;;;44.38;7.93;;;;;;;14.65;71.14;100844.03;5033370;28;20056;-45
2022/07/18 04:52:20;;;;;;;44.88;9.73;;;;;;;14.75;70.86;100852.38;5016236;28;20540;-48
2022/07/18 04:54:46;;;;;;;29.52;7.43;;;;;;;14.68;71.18;100846.28;5013570;28;20030;-46
2022/07/18 04:57:14;;;;;;;25.05;7.00;;;;;;;14.63;71.46;100859.63;5013532;28;20018;-48
2022/07/18 04:59:46;;;;;;;30.25;8.77;;;;;;;14.62;71.47;100861.50;5028701;28;20059;-48
2022/07/18 05:02:13;;;;;;;25.85;7.00;;;;;;;14.63;71.39;100873.09;5032666;28;20036;-48
2022/07/18 05:04:39;;;;;;;38.50;8.32;;;;;;;14.61;71.49;100867.13;5033147;28;20518;-44
2022/07/18 05:07:06;;;;;;;41.78;8.85;;;;;;;14.68;71.24;100875.91;5032993;28;20088;-47
2022/07/18 05:09:33;;;;;;;31.15;7.50;;;;;;;14.68;71.58;100873.22;5032740;28;20040;-47
2022/07/18 05:11:59;;;;;;;33.35;7.80;;;;;;;14.74;71.19;100877.69;5032469;28;20116;-45
2022/07/18 05:14:26;;;;;;;34.97;7.95;;;;;;;14.75;71.13;100879.31;5031730;28;20021;-47
2022/07/18 05:16:52;;;;;;;37.95;8.18;;;;;;;14.63;71.67;100886.56;5031468;28;20025;-45
2022/07/18 05:19:18;;;;;;;27.80;6.97;;;;;;;14.68;71.63;100882.13;5032735;28;20183;-46
2022/07/18 05:21:44;;;;;;;27.65;7.38;;;;;;;14.72;71.44;100886.00;5030743;28;20026;-45
2022/07/18 05:24:11;;;;;;;26.38;7.97;;;;;;;14.61;71.61;100891.38;5032699;28;20041;-48
2022/07/18 05:26:37;;;;;;;29.20;6.25;;;;;;;14.61;71.73;100880.59;5029607;28;20486;-48
2022/07/18 05:29:04;;;;;;;33.13;7.53;;;;;;;14.64;71.68;100885.50;5031145;28;20120;-49
2022/07/18 05:31:30;;;;;;;30.00;7.45;;;;;;;14.64;71.57;100893.59;5031349;28;20116;-45
2022/07/18 05:33:57;;;;;;;23.00;7.35;;;;;;;14.55;71.89;100897.66;5032357;28;20025;-48
2022/07/18 05:36:23;;;;;;;40.03;8.23;;;;;;;14.59;71.54;100898.84;5031469;28;20038;-48
2022/07/18 05:38:49;;;;;;;30.23;7.40;;;;;;;14.57;71.54;100888.31;5032278;28;20029;-48
2022/07/18 05:41:15;;;;;;;28.10;7.05;;;;;;;14.60;71.83;100887.00;5031199;28;20116;-46
2022/07/18 05:43:41;;;;;;;37.70;7.60;;;;;;;14.62;71.71;100898.41;5031942;28;20069;-46
2022/07/18 05:46:08;;;;;;;32.80;7.90;;;;;;;14.56;71.95;100894.75;5031205;28;20032;-47
2022/07/18 05:48:34;;;;;;;34.72;7.95;;;;;;;14.56;72.08;100893.94;5032416;28;20374;-45
2022/07/18 05:51:00;;;;;;;30.55;7.82;;;;;;;14.48;72.28;100901.28;5031041;28;20021;-48
2022/07/18 05:53:27;;;;;;;30.13;7.85;;;;;;;14.47;72.37;100907.72;5031943;28;20079;-45
2022/07/18 05:55:53;;;;;;;31.95;8.45;;;;;;;14.49;72.29;100896.72;5031188;28;20021;-48
2022/07/18 05:58:19;;;;;;;28.50;7.95;;;;;;;14.42;72.56;100895.97;5014434;28;20137;-47
2022/07/18 06:00:45;;;;;;;33.80;6.80;;;;;;;14.36;72.57;100900.41;5014257;28;20057;-45
2022/07/18 06:03:11;;;;;;;26.08;6.88;;;;;;;14.36;72.76;100895.00;5029211;28;20022;-47
2022/07/18 06:05:38;;;;;;;34.92;6.80;;;;;;;14.31;72.82;100902.13;5019678;28;20021;-48
2022/07/18 06:08:04;;;;;;;36.88;8.23;;;;;;;14.34;72.54;100902.50;5032122;28;20398;-48
2022/07/18 06:10:31;;;;;;;27.10;6.97;;;;;;;14.25;72.89;100904.69;5013492;28;20055;-47
2022/07/18 06:12:57;;;;;;;35.10;7.82;;;;;;;14.30;72.45;100912.09;5031660;28;20545;-46
2022/07/18 06:15:24;;;;;;;26.60;7.70;;;;;;;14.20;72.41;100911.81;5028104;28;20033;-48
2022/07/18 06:17:51;;;;;;;38.30;8.43;;;;;;;14.26;72.21;100916.28;5012379;28;20471;-47
2022/07/18 06:20:17;;;;;;;28.65;7.63;;;;;;;14.19;72.67;100911.00;5026950;28;20048;-47
2022/07/18 06:22:44;;;;;;;22.40;6.43;;;;;;;14.24;72.29;100918.38;5032013;28;20026;-47
2022/07/18 06:25:10;;;;;;;40.80;8.45;;;;;;;14.25;72.00;100907.38;5030766;28;20025;-45
2022/07/18 06:27:37;;;;;;;30.52;7.25;;;;;;;14.20;71.99;100911.81;5029754;28;20099;-48
2022/07/18 06:30:06;;;;;;;27.15;7.88;;;;;;;14.17;71.93;100912.28;5031533;28;20036;-48
2022/07/18 06:32:32;;;;;;;36.35;7.70;;;;;;;14.18;71.82;100906.66;5030401;28;20037;-48
2022/07/18 06:34:58;;;;;;;38.47;8.65;;;;;;;14.20;71.48;100911.81;5030639;28;20033;-45
2022/07/18 06:37:24;;;;;;;30.92;7.65;;;;;;;14.06;72.08;100904.97;5030033;28;20083;-48
2022/07/18 06:39:51;;;;;;;34.38;8.32;;;;;;;14.08;72.10;100909.06;5031527;28;20339;-49
2022/07/18 06:42:17;;;;;;;31.98;7.75;;;;;;;14.09;72.22;100915.28;5029219;28;20050;-44
2022/07/18 06:44:44;;;;;;;38.60;7.78;;;;;;;14.14;72.16;100915.41;5031351;28;20552;-45
2022/07/18 06:47:10;;;;;;;35.28;7.90;;;;;;;14.12;72.15;100915.66;5030472;28;20076;-45
2022/07/18 06:49:36;;;;;;;34.30;7.72;;;;;;;14.11;72.20;100914.00;5031536;28;20030;-48
2022/07/18 06:52:03;;;;;;;38.53;8.02;;;;;;;14.13;71.95;100914.59;5016855;28;20544;-45
2022/07/18 06:54:30;;;;;;;25.73;8.10;;;;;;;14.07;72.35;100912.81;5011674;28;20494;-46
2022/07/18 06:56:56;;;;;;;32.50;8.48;;;;;;;14.10;72.28;100912.38;5024491;28;20030;-47
2022/07/18 06:59:23;;;;;;;28.27;8.50;;;;;;;13.99;72.38;100913.97;5031149;28;20032;-48
2022/07/18 07:01:49;;;;;;;33.72;7.43;;;;;;;14.10;72.12;100917.75;5030097;28;20100;-45
2022/07/18 07:04:16;;;;;;;32.10;7.38;;;;;;;14.10;72.39;100915.06;5030621;28;20359;-45
2022/07/18 07:06:42;;;;;;;34.50;7.72;;;;;;;14.04;72.35;100924.03;5031554;28;20029;-47
2022/07/18 07:09:08;;;;;;;36.40;7.82;;;;;;;13.97;72.31;100924.09;5030453;28;20030;-47
2022/07/18 07:11:35;;;;;;;27.60;6.68;;;;;;;13.99;72.45;100931.94;5030320;28;20030;-48
2022/07/18 07:14:01;;;;;;;36.17;6.90;;;;;;;14.05;72.05;100931.06;5031409;28;20033;-45
2022/07/18 07:16:28;;;;;;;31.58;8.45;;;;;;;14.05;72.05;100939.16;5033941;28;20493;-47
2022/07/18 07:18:54;;;;;;;39.55;7.68;;;;;;;13.96;72.37;100938.63;5034805;28;20494;-45
2022/07/18 07:21:20;;;;;;;33.42;7.03;;;;;;;13.83;72.78;100929.91;5034181;28;20508;-45
2022/07/18 07:23:47;;;;;;;32.75;8.35;;;;;;;13.85;72.66;100936.69;5034742;28;20025;-48
2022/07/18 07:26:13;;;;;;;32.00;7.90;;;;;;;13.84;72.70;100935.03;5032705;28;20507;-45
2022/07/18 07:28:39;;;;;;;39.50;8.45;;;;;;;13.80;72.65;100933.84;5034366;28;20037;-45
2022/07/18 07:31:05;;;;;;;32.95;8.27;;;;;;;13.83;72.47;100928.03;5033718;28;20482;-45
2022/07/18 07:33:32;;;;;;;38.30;7.47;;;;;;;13.90;72.26;100928.75;5034507;28;20041;-47
2022/07/18 07:35:58;;;;;;;32.20;7.65;;;;;;;13.86;72.45;100934.81;5032027;28;20022;-47
2022/07/18 07:38:28;;;;;;;38.97;8.32;;;;;;;13.86;72.53;100926.75;5034680;28;20052;-46
2022/07/18 07:40:55;;;;;;;35.53;8.13;;;;;;;13.84;72.50;100929.66;5033692;28;20033;-47
2022/07/18 07:43:21;;;;;;;34.72;7.55;;;;;;;13.91;72.43;100924.19;5012831;28;20052;-49
2022/07/18 07:45:50;;;;;;;35.17;7.38;;;;;;;13.84;72.90;100923.47;5013171;28;20034;-48
2022/07/18 07:48:16;;;;;;;25.38;6.70;;;;;;;13.85;72.68;100931.31;5014819;28;20022;-46
2022/07/18 07:50:43;;;;;;;34.72;7.95;;;;;;;13.91;72.54;100932.28;5012446;28;20084;-47
2022/07/18 07:53:10;;;;;;;36.55;7.93;;;;;;;13.81;73.06;100927.41;5014528;28;20037;-48
2022/07/18 07:55:36;;;;;;;27.05;7.20;;;;;;;13.82;72.92;100926.34;5012875;28;20018;-46
2022/07/18 07:58:04;;;;;;;37.38;8.18;;;;;;;13.95;72.48;100930.78;5012475;28;20029;-45
2022/07/18 08:00:31;;;;;;;39.25;7.82;;;;;;;13.95;72.32;100931.59;5013235;28;20512;-45
2022/07/18 08:03:03;;;;;;;30.08;8.18;;;;;;;13.90;72.32;100926.06;5014333;28;20402;-46
2022/07/18 08:05:32;;;;;;;34.15;7.70;;;;;;;13.92;72.27;100937.41;5014220;28;20068;-45
2022/07/18 08:07:59;;;;;;;40.58;8.07;;;;;;;13.91;72.33;100926.88;5014721;28;20065;-45
2022/07/18 08:10:26;;;;;;;38.08;7.65;;;;;;;13.84;72.38;100931.53;5014196;28;20037;-47
2022/07/18 08:12:52;;;;;;;31.35;7.88;;;;;;;13.82;72.47;100920.97;5014120;28;20394;-47
2022/07/18 08:15:19;;;;;;;40.10;8.63;;;;;;;13.78;72.64;100921.69;5014097;28;20467;-45
2022/07/18 08:17:45;;;;;;;46.38;8.15;;;;;;;13.74;72.62;100924.81;5014163;28;20034;-47
2022/07/18 08:20:11;;;;;;;36.88;7.75;;;;;;;13.77;72.52;100923.56;5013976;28;20033;-47
2022/07/18 08:22:52;;;;;;;37.75;7.78;;;;;;;13.83;72.35;100925.34;5013876;28;20033;-45
2022/07/18 08:25:20;;;;;;;42.33;8.00;;;;;;;13.77;72.63;100930.78;5013948;28;20487;-48
2022/07/18 08:27:47;;;;;;;37.40;8.13;;;;;;;13.77;72.52;100926.25;5014086;28;20037;-46
2022/07/18 08:30:13;;;;;;;33.05;7.95;;;;;;;13.70;72.73;100926.28;5014096;28;20025;-48
2022/07/18 08:32:39;;;;;;;34.63;8.88;;;;;;;13.69;72.76;100929.22;5013699;28;20458;-49
2022/07/18 08:35:06;;;;;;;34.72;8.15;;;;;;;13.67;73.14;100929.44;5014048;28;20057;-48
2022/07/18 08:37:32;;;;;;;35.95;8.45;;;;;;;13.73;72.95;100942.00;5013946;28;20418;-47
2022/07/18 08:39:59;;;;;;;29.20;8.18;;;;;;;13.70;72.81;100936.22;5013672;28;20032;-46
2022/07/18 08:42:27;;;;;;;29.73;7.03;;;;;;;13.68;73.12;100932.97;5015624;28;20049;-48
2022/07/18 08:44:57;;;;;;;36.45;9.27;;;;;;;13.68;73.05;100935.66;5033546;28;20057;-47
2022/07/18 08:47:23;;;;;;;33.95;8.45;;;;;;;13.64;72.87;100929.88;5031507;28;20026;-47
2022/07/18 08:49:50;;;;;;;38.80;8.18;;;;;;;13.67;72.93;100942.91;5032431;28;20029;-48
2022/07/18 08:52:16;;;;;;;27.63;8.25;;;;;;;13.57;73.23;100944.47;5028688;28;20083;-46
2022/07/18 08:54:43;;;;;;;31.50;8.57;;;;;;;13.55;73.41;100950.06;5033237;28;20025;-46
2022/07/18 08:57:09;;;;;;;33.17;8.98;;;;;;;13.61;73.70;100959.94;5031728;28;20043;-48
2022/07/18 08:59:36;;;;;;;36.25;8.82;;;;;;;13.62;73.35;100958.06;5033243;28;20480;-47
2022/07/18 09:02:02;;;;;;;34.03;8.80;;;;;;;13.56;73.62;100965.16;5031269;28;20029;-45
2022/07/18 09:04:36;;;;;;;44.00;9.13;;;;;;;13.54;73.67;100961.84;5031439;28;20101;-45
2022/07/18 09:07:03;;;;;;;32.75;8.32;;;;;;;13.61;73.36;100962.63;5033373;28;20437;-48
2022/07/18 09:09:30;;;;;;;32.45;7.75;;;;;;;13.53;73.31;100954.81;5031866;28;20084;-45
2022/07/18 09:12:02;;;;;;;31.45;8.13;;;;;;;13.51;73.44;100961.47;5032613;28;20469;-46
2022/07/18 09:14:42;;;;;;;32.30;7.53;;;;;;;13.62;73.16;100968.81;5031511;28;20043;-47
2022/07/18 09:17:23;;;;;;;28.40;7.63;;;;;;;13.54;73.57;100961.84;5032867;28;20441;-48
2022/07/18 09:20:19;;;;;;;34.65;7.90;;;;;;;13.62;73.30;100960.75;5031148;28;20488;-44
2022/07/18 09:22:47;;;;;;;34.78;9.02;;;;;;;13.64;73.45;100955.97;4999209;28;20100;-45
2022/07/18 09:25:15;;;;;;;28.08;7.35;;;;;;;13.71;73.23;100965.63;5024318;28;20360;-47
2022/07/18 09:27:44;;;;;;;29.25;7.68;;;;;;;13.68;73.67;100967.91;5029956;28;20071;-47
2022/07/18 09:30:19;;;;;;;24.67;7.65;;;;;;;13.62;74.22;100968.81;5031669;28;20061;-48
2022/07/18 09:32:46;;;;;;;;;;;;;;;13.63;74.06;100973.16;5013070;28;20029;-47
2022/07/18 09:35:16;;;;;;;37.30;7.60;;;;;;;13.54;74.51;100969.09;5012803;28;19923;-45
2022/07/18 09:37:53;;;;;;;36.35;8.18;;;;;;;13.59;74.26;100963.88;5029709;28;20462;-47
2022/07/18 09:40:23;;;;;;;33.38;7.82;;;;;;;13.55;74.37;100978.81;5031616;28;20447;-46
2022/07/18 09:42:51;;;;;;;31.67;7.50;;;;;;;13.65;74.05;100979.13;5031977;28;20049;-48
2022/07/18 09:45:32;;;;;;;36.10;8.02;;;;;;;13.75;74.18;100976.72;5031597;28;20057;-45
2022/07/18 09:48:06;;;;;;;33.50;8.18;;;;;;;13.80;73.92;100973.38;5012632;28;20622;-48
2022/07/18 09:50:36;;;;;;;39.63;8.75;;;;;;;13.66;74.55;100975.41;5012658;28;20418;-48
2022/07/18 09:53:26;;;;;;;39.53;8.43;;;;;;;13.72;74.50;100985.28;5030490;28;20041;-45
2022/07/18 09:55:59;;;;;;;35.65;7.93;;;;;;;13.70;74.79;100992.72;5012722;28;20542;-47
2022/07/18 09:58:33;;;;;;;29.27;7.13;;;;;;;13.60;74.90;100985.19;5026715;28;20032;-45
2022/07/18 10:01:02;;;;;;;37.72;8.00;;;;;;;13.66;75.19;100991.53;5030474;28;20088;-46
2022/07/18 10:03:29;;;;;;;36.47;8.30;;;;;;;13.63;74.67;100997.34;5031913;28;20049;-45
2022/07/18 10:05:58;;;;;;;42.58;7.55;;;;;;;13.51;75.40;101002.66;5030277;28;20034;-47
2022/07/18 10:08:28;;;;;;;39.38;8.38;;;;;;;13.63;74.85;100994.66;5030798;28;20025;-46
2022/07/18 10:10:56;;;;;;;42.58;10.40;;;;;;;13.57;75.36;100991.00;5030568;28;20021;-48
2022/07/18 10:13:23;;;;;;;36.15;9.38;;;;;;;13.59;75.41;100999.66;5031628;28;20029;-45
2022/07/18 10:15:50;;;;;;;30.60;8.52;;;;;;;13.56;75.79;100991.22;5030222;28;20029;-48
2022/07/18 10:18:22;;;;;;;30.02;7.72;;;;;;;13.56;75.78;100993.91;5032117;28;20388;-49
2022/07/18 10:21:03;;;;;;;42.13;9.25;;;;;;;13.54;75.98;100983.34;5030171;28;20025;-48
2022/07/18 10:23:34;;;;;;;44.60;9.35;;;;;;;13.52;76.04;101001.59;5031271;28;20033;-49
2022/07/18 10:26:20;;;;;;;33.55;7.97;;;;;;;13.58;76.00;100997.19;5030287;28;20072;-46
2022/07/18 10:28:59;;;;;;;32.88;8.48;;;;;;;13.53;76.18;101005.91;5031981;28;20053;-46
2022/07/18 10:31:39;;;;;;;32.65;8.50;;;;;;;13.48;76.63;101001.19;5029811;28;20115;-45
2022/07/18 10:34:09;;;;;;;41.67;8.02;;;;;;;13.51;76.48;101009.88;5031691;28;20445;-46
2022/07/18 10:36:42;;;;;;;31.52;7.72;;;;;;;13.38;76.91;101016.19;5030479;28;20055;-46
2022/07/18 10:39:20;;;;;;;33.22;8.43;;;;;;;13.42;76.51;101018.22;5031580;28;20025;-47
2022/07/18 10:41:46;;;;;;;53.70;9.82;;;;;;;13.57;76.18;101011.69;5030022;28;20067;-48
2022/07/18 10:44:25;;;;;;;45.25;8.98;;;;;;;13.51;76.51;101026.03;5029620;28;20136;-47
2022/07/18 10:47:03;;;;;;;32.55;8.88;;;;;;;13.40;76.75;101027.56;5031497;28;20406;-45
2022/07/18 10:49:58;;;;;;;29.25;7.35;;;;;;;13.34;76.73;101023.88;5031057;28;20052;-48
2022/07/18 10:52:32;;;;;;;36.78;9.10;;;;;;;13.44;76.54;101018.03;5013042;28;20167;-45
2022/07/18 10:55:05;;;;;;;31.55;9.07;;;;;;;13.38;76.87;101024.25;5030640;28;20099;-48
2022/07/18 10:57:40;;;;;;;33.00;8.75;;;;;;;13.36;76.66;101024.47;5035541;28;20037;-46
2022/07/18 11:00:13;;;;;;;34.83;8.30;;;;;;;13.36;76.62;101027.16;5033602;28;20026;-45
2022/07/18 11:02:42;;;;;;;33.28;8.38;;;;;;;13.31;76.96;101026.19;5034987;28;20402;-47
2022/07/18 11:05:32;;;;;;;38.55;9.05;;;;;;;13.43;76.63;101027.94;5034272;28;20022;-44
2022/07/18 11:07:58;;;;;;;46.63;9.95;;;;;;;13.23;77.10;101034.53;5023480;28;20056;-48
2022/07/18 11:10:50;;;;;;;36.00;8.90;;;;;;;13.23;77.22;101046.09;5035252;28;20096;-47
2022/07/18 11:13:28;;;;;;;27.52;7.82;;;;;;;13.26;77.21;101034.06;5033357;28;20042;-46
2022/07/18 11:15:56;;;;;;;45.70;9.40;;;;;;;13.35;76.95;101036.28;5035192;28;20389;-48
2022/07/18 11:18:22;;;;;;;39.85;9.43;;;;;;;13.23;77.42;101032.66;5033926;28;20037;-48
2022/07/18 11:20:49;;;;;;;38.80;8.68;;;;;;;13.23;77.45;101032.66;5033868;28;20120;-46
2022/07/18 11:23:24;;;;;;;40.10;8.40;;;;;;;13.15;77.64;101038.25;5034615;28;20033;-46